Witless Bay, Canada
Current Conditions -  °F | °C
As of 1:00 PM on Thursday 29 Jan 2015 (Local Time) from CYYT Reporting Station
Broken Clouds Broken Clouds  
Wind Chill: 28°   Ceiling: 20000
Heat Index: 37°   Visibility: 15mi
Dew Point: 32°   Wind: 17mph
Humidity: 81%   Direction: 260°W
Pressure: 29.94"   Gusts: 26mph
Location:  47.28°N, 52.83°W
Report Text: CYYT 291600Z 26015G23KT 15SM FEW016 BKN200 03/00 A2994 RMK SC2CC4 SLP143
Loading
Personal Weather Stations






























Interactive Weather Map New forecast layout! Learn more

10-Day Weather Forecast

Advertisements
Track Severe Weather on mobile